Time;durP1;ratioP1;P1;durP2;ratioP2;P2;SDS_P1;SDS_P2;PMS_P1;PMS_P2;Temp;Humidity;BMP_temperature;BMP_pressure;BME280_temperature;BME280_humidity;BME280_pressure;Samples;Min_cycle;Max_cycle;Signal;HPM_P1;HPM_P2
2023/12/07 00:00:25;;;;;;;16.05;13.70;;;;;;;3.67;69.48;101907.56;5076746;28;20034;-64
2023/12/07 00:02:50;;;;;;;15.63;13.95;;;;;;;3.64;69.76;101906.03;5085010;28;20045;-63
2023/12/07 00:05:15;;;;;;;15.15;13.65;;;;;;;3.61;69.38;101900.88;5067301;28;20470;-63
2023/12/07 00:07:41;;;;;;;14.80;13.30;;;;;;;3.58;69.62;101893.03;5071595;28;20030;-64
2023/12/07 00:10:06;;;;;;;15.98;13.80;;;;;;;3.57;70.03;101898.69;5087839;28;20133;-64
2023/12/07 00:12:32;;;;;;;14.88;12.85;;;;;;;3.56;70.18;101897.84;5082899;28;20032;-64
2023/12/07 00:14:57;;;;;;;14.63;13.13;;;;;;;3.53;69.45;101892.69;5085978;28;20123;-63
2023/12/07 00:17:22;;;;;;;15.02;13.52;;;;;;;3.53;70.04;101892.69;5085883;28;20043;-63
2023/12/07 00:19:53;;;;;;;15.77;13.98;;;;;;;3.49;70.49;101891.34;5085962;28;20478;-63
2023/12/07 00:22:20;;;;;;;16.20;13.32;;;;;;;3.51;69.57;101889.31;5072454;28;20156;-65
2023/12/07 00:24:45;;;;;;;15.02;13.45;;;;;;;3.49;69.75;101885.03;5080311;28;20075;-65
2023/12/07 00:27:11;;;;;;;15.57;13.98;;;;;;;3.48;70.55;101892.41;5083299;28;20108;-64
2023/12/07 00:29:37;;;;;;;14.40;12.90;;;;;;;3.47;69.59;101890.69;5083174;28;20043;-65
2023/12/07 00:32:03;;;;;;;15.35;13.18;;;;;;;3.48;69.63;101892.41;5074985;28;20035;-64
2023/12/07 00:34:28;;;;;;;15.98;14.27;;;;;;;3.47;69.92;101890.69;5086594;28;20365;-65
2023/12/07 00:36:54;;;;;;;16.13;14.48;;;;;;;3.47;69.33;101893.44;5089130;28;20020;-66
2023/12/07 00:39:20;;;;;;;16.25;14.65;;;;;;;3.47;69.75;101898.09;5081474;28;20111;-65
2023/12/07 00:41:46;;;;;;;16.58;14.77;;;;;;;3.42;69.65;101890.41;5089515;28;20028;-64
2023/12/07 00:44:12;;;;;;;16.63;14.80;;;;;;;3.43;69.94;101894.84;5077680;28;20623;-64
2023/12/07 00:46:37;;;;;;;16.60;14.98;;;;;;;3.43;69.60;101883.88;5073919;28;20035;-64
2023/12/07 00:49:02;;;;;;;15.75;14.07;;;;;;;3.42;69.69;101885.75;5077453;28;20107;-65
2023/12/07 00:51:28;;;;;;;15.93;14.23;;;;;;;3.42;69.28;101879.41;5090722;28;20024;-64
2023/12/07 00:53:53;;;;;;;16.30;14.55;;;;;;;3.40;69.55;101881.47;5094657;28;20031;-65
2023/12/07 00:56:18;;;;;;;17.67;15.90;;;;;;;3.39;70.12;101879.78;5093730;28;20050;-64
2023/12/07 00:58:43;;;;;;;17.10;15.15;;;;;;;3.39;70.01;101879.78;5093979;28;20073;-65
2023/12/07 01:01:09;;;;;;;17.80;15.25;;;;;;;3.33;69.47;101895.06;5094608;28;20035;-64
2023/12/07 01:03:34;;;;;;;17.60;15.85;;;;;;;3.35;70.31;101887.50;5084703;28;20035;-66
2023/12/07 01:05:59;;;;;;;19.63;15.70;;;;;;;3.33;70.13;101891.47;5075418;28;20025;-64
2023/12/07 01:08:27;;;;;;;17.95;15.05;;;;;;;3.30;69.87;101886.31;5083151;28;20469;-64
2023/12/07 01:10:52;;;;;;;17.90;16.00;;;;;;;3.32;69.62;101890.59;5093407;28;20175;-65
2023/12/07 01:13:18;;;;;;;19.55;16.13;;;;;;;3.33;70.53;101892.31;5088965;28;20036;-64
2023/12/07 01:15:43;;;;;;;19.38;16.48;;;;;;;3.34;70.54;101899.53;5088757;28;20032;-64
2023/12/07 01:18:08;;;;;;;18.00;16.00;;;;;;;3.33;70.52;101913.41;5076186;28;20028;-65
2023/12/07 01:20:33;;;;;;;18.42;16.42;;;;;;;3.31;70.09;101910.00;5082683;28;20028;-65
2023/12/07 01:22:59;;;;;;;17.50;15.70;;;;;;;3.34;70.36;101907.75;5091068;28;20028;-64
2023/12/07 01:25:25;;;;;;;18.50;16.60;;;;;;;3.34;70.39;101904.13;5091387;28;20066;-64
2023/12/07 01:27:50;;;;;;;17.95;15.73;;;;;;;3.32;70.87;101908.97;5080980;28;20499;-64
2023/12/07 01:30:16;;;;;;;17.40;15.30;;;;;;;3.33;70.60;101907.94;5080305;28;20115;-64
2023/12/07 01:32:41;;;;;;;18.35;16.33;;;;;;;3.30;70.21;101906.41;5076683;28;20078;-64
2023/12/07 01:35:07;;;;;;;19.27;16.58;;;;;;;3.30;70.13;101909.16;5078720;28;20033;-64
2023/12/07 01:37:35;;;;;;;18.08;16.20;;;;;;;3.27;70.46;101906.75;5076284;28;20060;-64
2023/12/07 01:40:01;;;;;;;19.40;15.40;;;;;;;3.24;69.68;101895.28;5087700;28;20087;-64
2023/12/07 01:42:30;;;;;;;22.20;16.20;;;;;;;3.27;70.00;101901.28;5090174;28;20028;-64
2023/12/07 01:44:55;;;;;;;19.45;15.70;;;;;;;3.27;70.76;101904.03;5079700;28;20050;-65
2023/12/07 01:47:21;;;;;;;18.30;15.95;;;;;;;3.26;70.08;101905.03;5084626;28;20032;-64
2023/12/07 01:49:53;;;;;;;18.58;15.68;;;;;;;3.27;70.75;101908.66;5073857;28;20056;-65
2023/12/07 01:52:22;;;;;;;17.95;16.10;;;;;;;3.25;70.33;101906.06;5071820;28;20033;-65
2023/12/07 01:54:47;;;;;;;17.90;16.05;;;;;;;3.24;70.23;101903.53;5072605;28;20502;-64
2023/12/07 01:57:12;;;;;;;18.13;15.93;;;;;;;3.19;69.46;101906.81;5081062;28;20126;-64
2023/12/07 01:59:38;;;;;;;18.88;16.38;;;;;;;3.18;71.06;101899.59;5073091;28;20107;-64
2023/12/07 02:02:03;;;;;;;20.67;17.48;;;;;;;3.19;71.49;101904.06;5072558;28;20115;-64
2023/12/07 02:04:29;;;;;;;23.67;18.30;;;;;;;3.19;71.88;101907.66;5072424;28;20036;-64
2023/12/07 02:06:58;;;;;;;24.13;18.23;;;;;;;3.17;72.63;101904.22;5079319;28;20116;-64
2023/12/07 02:09:23;;;;;;;23.63;17.90;;;;;;;3.19;72.81;101898.59;5087947;28;20031;-64
2023/12/07 02:11:49;;;;;;;45.47;20.50;;;;;;;3.13;73.86;101905.63;5076064;28;20828;-64
2023/12/07 02:14:14;;;;;;;23.33;18.42;;;;;;;3.12;74.23;101906.66;5091920;28;20225;-65
2023/12/07 02:16:47;;;;;;;23.98;19.45;;;;;;;3.10;74.75;101914.19;5076233;28;20032;-64
2023/12/07 02:19:22;;;;;;;24.13;18.90;;;;;;;3.11;75.00;101918.66;5071790;28;20028;-64
2023/12/07 02:21:55;;;;;;;27.48;18.23;;;;;;;3.08;74.50;101910.78;5085722;28;20025;-64
2023/12/07 02:24:22;;;;;;;21.35;17.65;;;;;;;3.13;74.87;101918.47;5062916;28;20027;-64
2023/12/07 02:26:49;;;;;;;23.05;18.13;;;;;;;3.13;74.47;101913.00;5084620;28;20460;-64
2023/12/07 02:29:17;;;;;;;21.10;16.88;;;;;;;3.17;74.70;101926.16;5087299;28;20476;-64
2023/12/07 02:31:43;;;;;;;23.98;18.50;;;;;;;3.18;74.96;101925.16;5079211;28;20028;-64
2023/12/07 02:34:09;;;;;;;21.35;17.63;;;;;;;3.23;74.59;101918.28;5091519;28;20040;-64
2023/12/07 02:36:38;;;;;;;21.40;17.60;;;;;;;3.20;75.00;101922.22;5090682;28;20128;-64
2023/12/07 02:39:04;;;;;;;22.42;17.77;;;;;;;3.19;74.34;101923.28;5089293;28;20028;-64
2023/12/07 02:41:31;;;;;;;21.88;17.58;;;;;;;3.23;75.25;101923.78;5077456;28;20042;-64
2023/12/07 02:43:57;;;;;;;20.00;17.58;;;;;;;3.18;74.56;101914.19;5075034;28;20024;-63
2023/12/07 02:46:23;;;;;;;22.27;17.10;;;;;;;3.20;74.57;101925.81;5087669;28;20031;-65
2023/12/07 02:48:49;;;;;;;20.88;16.70;;;;;;;3.18;74.59;101916.06;5081739;28;20035;-65
2023/12/07 02:51:14;;;;;;;23.63;17.70;;;;;;;3.15;75.03;101920.03;5071710;28;20043;-65
2023/12/07 02:53:39;;;;;;;22.77;16.88;;;;;;;3.14;74.96;101912.84;5073063;28;20041;-65
2023/12/07 02:56:05;;;;;;;19.88;17.02;;;;;;;3.14;74.46;101921.06;5070872;28;20039;-64
2023/12/07 02:58:30;;;;;;;19.00;16.50;;;;;;;3.16;74.81;101921.72;5082666;28;20024;-65
2023/12/07 03:00:56;;;;;;;21.77;16.05;;;;;;;3.16;74.80;101918.13;5071654;28;20033;-65
2023/12/07 03:03:21;;;;;;;20.02;15.25;;;;;;;3.11;74.45;101915.94;5080948;28;20028;-65
2023/12/07 03:05:47;;;;;;;21.50;16.80;;;;;;;3.12;74.71;101923.13;5090853;28;20035;-65
2023/12/07 03:08:12;;;;;;;20.92;17.08;;;;;;;3.10;74.80;101916.94;5076561;28;20503;-65
2023/12/07 03:10:37;;;;;;;19.52;16.52;;;;;;;3.12;75.02;101911.28;5070987;28;20020;-65
2023/12/07 03:13:03;;;;;;;20.33;17.48;;;;;;;3.14;74.63;101914.69;5073394;28;20395;-65
2023/12/07 03:15:28;;;;;;;22.23;16.17;;;;;;;3.11;75.29;101913.19;5089058;28;20082;-66
2023/12/07 03:17:53;;;;;;;20.80;16.70;;;;;;;3.11;75.13;101917.81;5077140;28;20555;-65
2023/12/07 03:20:19;;;;;;;19.95;16.05;;;;;;;3.11;74.97;101926.91;5078802;28;20024;-64
2023/12/07 03:22:44;;;;;;;18.33;15.88;;;;;;;3.12;75.60;101923.13;5086692;28;20028;-65
2023/12/07 03:25:10;;;;;;;23.20;17.13;;;;;;;3.07;75.14;101928.28;5086587;28;20621;-64
2023/12/07 03:27:38;;;;;;;23.77;16.08;;;;;;;3.03;74.91;101917.84;5071099;28;20028;-64
2023/12/07 03:30:07;;;;;;;30.25;17.30;;;;;;;3.01;75.47;101926.25;5072761;28;20055;-64
2023/12/07 03:32:32;;;;;;;20.38;16.90;;;;;;;3.07;75.36;101925.53;5076961;28;20099;-64
2023/12/07 03:35:00;;;;;;;22.90;17.48;;;;;;;3.06;75.30;101922.97;5084443;28;20449;-64
2023/12/07 03:37:25;;;;;;;20.40;16.40;;;;;;;3.07;75.08;101922.81;5078693;28;20754;-65
2023/12/07 03:39:51;;;;;;;21.27;16.83;;;;;;;3.08;74.77;101926.41;5072009;28;20032;-65
2023/12/07 03:42:17;;;;;;;23.38;17.65;;;;;;;3.11;75.57;101926.91;5077981;28;20173;-64
2023/12/07 03:44:43;;;;;;;24.00;16.67;;;;;;;3.05;74.72;101937.72;5090610;28;20122;-65
2023/12/07 03:47:11;;;;;;;21.35;17.30;;;;;;;3.03;75.54;101937.06;5077018;28;20195;-65
2023/12/07 03:49:38;;;;;;;21.10;16.20;;;;;;;3.02;75.55;101936.19;5083994;28;20024;-65
2023/12/07 03:52:04;;;;;;;28.92;17.77;;;;;;;2.98;75.08;101942.19;5090396;28;20485;-65
2023/12/07 03:54:29;;;;;;;23.20;18.20;;;;;;;2.98;75.61;101945.78;5091482;28;20104;-64
2023/12/07 03:56:54;;;;;;;21.80;16.85;;;;;;;3.00;75.86;101949.22;5090838;28;20062;-64
2023/12/07 03:59:20;;;;;;;29.27;17.15;;;;;;;2.95;75.33;101940.69;5070021;28;20040;-64
2023/12/07 04:01:45;;;;;;;24.15;17.42;;;;;;;2.92;75.43;101952.00;5082782;28;20036;-65
2023/12/07 04:04:10;;;;;;;22.05;17.52;;;;;;;2.89;75.76;101952.34;5091155;28;20032;-64
2023/12/07 04:06:36;;;;;;;24.92;18.25;;;;;;;2.87;76.06;101948.91;5077164;28;20028;-65
2023/12/07 04:09:01;;;;;;;22.23;17.50;;;;;;;2.94;76.12;101952.66;5070671;28;20436;-64
2023/12/07 04:11:26;;;;;;;23.35;18.73;;;;;;;2.96;76.07;101950.59;5070037;28;20491;-64
2023/12/07 04:13:52;;;;;;;23.70;17.75;;;;;;;2.95;75.55;101951.66;5072521;28;20824;-65
2023/12/07 04:16:17;;;;;;;19.48;16.33;;;;;;;2.94;76.06;101948.03;5094298;28;20430;-64
2023/12/07 04:18:43;;;;;;;22.98;16.92;;;;;;;2.98;75.75;101954.03;5081450;28;20109;-65
2023/12/07 04:21:08;;;;;;;23.77;18.70;;;;;;;3.01;75.86;101958.31;5081971;28;20028;-65
2023/12/07 04:23:33;;;;;;;21.23;17.13;;;;;;;3.01;75.96;101956.41;5092385;28;20028;-64
2023/12/07 04:25:59;;;;;;;21.40;17.40;;;;;;;3.05;75.92;101963.25;5079738;28;20059;-64
2023/12/07 04:28:24;;;;;;;25.60;18.65;;;;;;;3.04;75.67;101958.81;5074283;28;20060;-64
2023/12/07 04:30:49;;;;;;;27.70;18.83;;;;;;;3.02;75.48;101968.25;5075307;28;20036;-64
2023/12/07 04:33:14;;;;;;;28.25;18.33;;;;;;;2.99;75.43;101966.72;5086260;28;20040;-64
2023/12/07 04:35:40;;;;;;;27.63;18.92;;;;;;;2.98;75.43;101961.38;5078923;28;20074;-64
2023/12/07 04:38:05;;;;;;;27.35;19.70;;;;;;;2.99;75.41;101960.34;5079710;28;20032;-64
2023/12/07 04:40:30;;;;;;;26.30;18.38;;;;;;;3.00;75.92;101968.44;5079246;28;20456;-65
2023/12/07 04:42:56;;;;;;;27.88;18.10;;;;;;;2.98;75.63;101962.25;5087435;28;20033;-64
2023/12/07 04:45:22;;;;;;;28.13;18.08;;;;;;;2.93;75.21;101968.25;5073646;28;20032;-64
2023/12/07 04:47:47;;;;;;;25.15;18.90;;;;;;;2.93;75.74;101961.94;5073230;28;20107;-64
2023/12/07 04:50:12;;;;;;;28.10;18.80;;;;;;;2.91;75.32;101953.88;5076007;28;20123;-65
2023/12/07 04:52:38;;;;;;;28.75;19.70;;;;;;;2.90;75.67;101956.78;5074074;28;20086;-63
2023/12/07 04:55:06;;;;;;;25.85;18.35;;;;;;;2.87;75.38;101955.28;5073263;28;20213;-60
2023/12/07 04:57:31;;;;;;;27.27;18.38;;;;;;;2.86;76.01;101947.19;5085645;28;20043;-65
2023/12/07 04:59:57;;;;;;;27.00;18.52;;;;;;;2.83;76.13;101950.28;5087877;28;20425;-65
2023/12/07 05:02:22;;;;;;;26.45;17.25;;;;;;;2.77;76.04;101953.75;5091194;28;20065;-66
2023/12/07 05:04:47;;;;;;;23.85;16.30;;;;;;;2.75;75.88;101942.09;5073743;28;20479;-65
2023/12/07 05:07:13;;;;;;;25.67;16.95;;;;;;;2.77;76.40;101942.78;5073584;28;20043;-65
2023/12/07 05:09:40;;;;;;;26.05;17.08;;;;;;;2.76;76.45;101933.69;5072792;28;20059;-65
2023/12/07 05:12:06;;;;;;;26.25;16.20;;;;;;;2.78;76.57;101928.03;5077524;28;20032;-65
2023/12/07 05:14:32;;;;;;;22.60;16.00;;;;;;;2.77;76.44;101926.31;5086085;28;20029;-65
2023/12/07 05:16:57;;;;;;;21.50;15.00;;;;;;;2.81;76.28;101933.16;5072306;28;20029;-65
2023/12/07 05:19:23;;;;;;;26.65;15.15;;;;;;;2.82;76.39;101929.38;5078516;28;20020;-65
2023/12/07 05:21:49;;;;;;;26.33;15.25;;;;;;;2.74;77.02;101933.00;5092990;28;20127;-65
2023/12/07 05:24:15;;;;;;;24.77;15.63;;;;;;;2.74;77.13;101929.41;5092728;28;20455;-65
2023/12/07 05:26:41;;;;;;;23.88;15.77;;;;;;;2.72;76.86;101921.38;5075577;28;20036;-65
2023/12/07 05:29:11;;;;;;;28.63;16.10;;;;;;;2.72;76.60;101928.75;5072881;28;20031;-65
2023/12/07 05:31:36;;;;;;;21.17;15.05;;;;;;;2.69;77.10;101928.06;5086037;28;20077;-65
2023/12/07 05:34:03;;;;;;;24.02;16.08;;;;;;;2.67;77.45;101935.63;5093045;28;20052;-65
2023/12/07 05:36:29;;;;;;;22.02;15.90;;;;;;;2.67;77.24;101915.53;5092345;28;20019;-65
2023/12/07 05:38:54;;;;;;;24.02;15.52;;;;;;;2.67;77.58;101918.28;5080148;28;20032;-65
2023/12/07 05:41:19;;;;;;;21.45;15.60;;;;;;;2.73;77.35;101917.59;5086929;28;20028;-65
2023/12/07 05:43:45;;;;;;;24.63;15.60;;;;;;;2.74;77.83;101923.94;5088325;28;20047;-65
2023/12/07 05:46:10;;;;;;;32.80;16.23;;;;;;;2.72;77.09;101920.53;5072929;28;20032;-65
2023/12/07 05:48:38;;;;;;;22.73;15.38;;;;;;;2.73;78.20;101924.97;5085425;28;20023;-65
2023/12/07 05:51:04;;;;;;;22.98;15.63;;;;;;;2.73;78.12;101914.00;5092146;28;20415;-65
2023/12/07 05:53:32;;;;;;;22.67;15.77;;;;;;;2.75;77.98;101921.03;5089257;28;20094;-65
2023/12/07 05:55:57;;;;;;;21.33;14.85;;;;;;;2.77;78.12;101918.09;5081202;28;20104;-65
2023/12/07 05:58:23;;;;;;;26.83;15.88;;;;;;;2.73;78.42;101920.34;5072026;28;20020;-65
2023/12/07 06:00:48;;;;;;;21.65;15.05;;;;;;;2.71;77.75;101916.91;5077718;28;20108;-65
2023/12/07 06:03:17;;;;;;;24.95;14.90;;;;;;;2.66;78.33;101925.66;5082445;28;20020;-65
2023/12/07 06:05:44;;;;;;;25.55;14.65;;;;;;;2.62;78.12;101927.03;5088008;28;20036;-65
2023/12/07 06:08:10;;;;;;;21.42;15.77;;;;;;;2.67;78.45;101915.53;5072366;28;20028;-65
2023/12/07 06:10:38;;;;;;;23.35;16.15;;;;;;;2.67;78.73;101919.16;5072798;28;20115;-65
2023/12/07 06:13:04;;;;;;;20.58;14.30;;;;;;;2.72;78.42;101924.13;5077184;28;20032;-65
2023/12/07 06:15:30;;;;;;;20.77;14.27;;;;;;;2.74;77.93;101926.69;5077389;28;20028;-65
2023/12/07 06:17:55;;;;;;;25.60;15.23;;;;;;;2.74;78.33;101913.81;5072829;28;20041;-66
2023/12/07 06:20:20;;;;;;;20.33;14.55;;;;;;;2.69;78.67;101921.72;5088141;28;20034;-65
2023/12/07 06:22:46;;;;;;;31.17;14.20;;;;;;;2.66;78.75;101917.44;5080922;28;20033;-65
2023/12/07 06:25:11;;;;;;;19.58;13.20;;;;;;;2.70;78.31;101918.78;5087878;28;20036;-65
2023/12/07 06:27:37;;;;;;;19.25;13.23;;;;;;;2.67;78.43;101918.28;5078286;28;20086;-65
2023/12/07 06:30:06;;;;;;;20.10;13.43;;;;;;;2.65;79.01;101915.72;5075901;28;20036;-65
2023/12/07 06:32:32;;;;;;;21.13;12.85;;;;;;;2.69;78.54;101928.06;5087067;28;20503;-65
2023/12/07 06:34:57;;;;;;;18.15;12.77;;;;;;;2.69;78.92;101921.72;5072481;28;20036;-67
2023/12/07 06:37:23;;;;;;;17.77;12.95;;;;;;;2.71;78.69;101922.38;5071904;28;20032;-65
2023/12/07 06:39:51;;;;;;;18.63;12.40;;;;;;;2.69;78.43;101913.50;5074413;28;20024;-66
2023/12/07 06:42:16;;;;;;;17.38;12.10;;;;;;;2.69;78.82;101902.53;5077934;28;20059;-65
2023/12/07 06:44:49;;;;;;;17.52;12.77;;;;;;;2.70;78.96;101907.81;5077794;28;20063;-66
2023/12/07 06:47:14;;;;;;;;;;;;;;;2.85;78.10;101888.78;5071816;28;20115;-66
2023/12/07 06:49:39;;;;;;;18.45;13.30;;;;;;;2.75;78.62;101892.72;5088876;28;19966;-65
2023/12/07 06:52:05;;;;;;;19.38;13.45;;;;;;;2.75;78.36;101892.72;5078260;28;20383;-65
2023/12/07 06:54:30;;;;;;;19.17;12.95;;;;;;;2.76;79.16;101880.75;5075005;28;20435;-65
2023/12/07 06:56:55;;;;;;;23.75;14.40;;;;;;;2.78;78.78;101895.13;5090818;28;20138;-65
2023/12/07 06:59:21;;;;;;;21.50;14.18;;;;;;;2.76;79.01;101894.47;5081079;28;20036;-65
2023/12/07 07:01:46;;;;;;;23.92;14.05;;;;;;;2.77;78.58;101887.94;5079814;28;20062;-65
2023/12/07 07:04:11;;;;;;;19.35;13.80;;;;;;;2.78;78.82;101897.88;5072998;28;20124;-65
2023/12/07 07:06:38;;;;;;;18.15;13.10;;;;;;;2.70;78.50;101896.00;5084863;28;20093;-65
2023/12/07 07:09:06;;;;;;;21.35;14.60;;;;;;;2.73;78.75;101894.81;5090917;28;20032;-64
2023/12/07 07:11:35;;;;;;;20.23;13.88;;;;;;;2.72;79.17;101898.59;5079067;28;20039;-65
2023/12/07 07:14:01;;;;;;;21.88;14.70;;;;;;;2.75;79.25;101904.59;5075438;28;20032;-66
2023/12/07 07:16:26;;;;;;;21.80;14.90;;;;;;;2.78;79.09;101906.09;5071467;28;20024;-65
2023/12/07 07:18:51;;;;;;;20.77;14.07;;;;;;;2.81;79.26;101908.50;5079062;28;20104;-65
2023/12/07 07:21:17;;;;;;;21.98;14.98;;;;;;;2.82;78.81;101904.72;5077794;28;20024;-65
2023/12/07 07:23:42;;;;;;;21.77;15.35;;;;;;;2.84;79.44;101908.16;5079063;28;20036;-65
2023/12/07 07:26:08;;;;;;;25.02;15.90;;;;;;;2.82;78.76;101899.22;5078529;28;20040;-65
2023/12/07 07:28:34;;;;;;;23.17;15.73;;;;;;;2.80;79.43;101906.78;5084159;28;20487;-64
2023/12/07 07:31:00;;;;;;;25.77;16.63;;;;;;;2.77;79.30;101915.38;5080888;28;20032;-65
2023/12/07 07:33:25;;;;;;;25.80;16.63;;;;;;;2.81;79.38;101927.69;5084654;28;20399;-65
2023/12/07 07:35:55;;;;;;;25.52;16.92;;;;;;;2.82;79.92;101918.41;5083327;28;20024;-65
2023/12/07 07:38:20;;;;;;;26.85;17.05;;;;;;;2.84;79.92;101924.59;5072578;28;20111;-65
2023/12/07 07:40:47;;;;;;;27.42;16.95;;;;;;;2.86;79.85;101930.75;5072141;28;20769;-64
2023/12/07 07:43:12;;;;;;;28.52;18.38;;;;;;;2.84;79.57;101924.59;5083094;28;20036;-64
2023/12/07 07:45:37;;;;;;;26.42;17.67;;;;;;;2.83;79.40;101915.53;5073610;28;20081;-64
2023/12/07 07:48:03;;;;;;;23.65;16.38;;;;;;;2.86;79.42;101906.91;5081162;28;20032;-64
2023/12/07 07:50:28;;;;;;;26.38;17.10;;;;;;;2.86;79.57;101912.41;5078429;28;20032;-63
2023/12/07 07:52:56;;;;;;;24.77;17.10;;;;;;;2.83;80.38;101914.63;5085302;28;20031;-64
2023/12/07 07:55:22;;;;;;;24.65;16.80;;;;;;;2.86;80.49;101917.88;5094875;28;20048;-64
2023/12/07 07:57:47;;;;;;;27.20;18.98;;;;;;;2.87;79.94;101913.25;5086082;28;20502;-64
2023/12/07 08:00:13;;;;;;;26.92;18.00;;;;;;;2.90;79.97;101912.91;5080954;28;20487;-63
2023/12/07 08:02:38;;;;;;;26.40;17.73;;;;;;;2.85;80.50;101909.84;5094261;28;20035;-63
2023/12/07 08:05:04;;;;;;;26.30;18.58;;;;;;;2.87;79.94;101905.91;5095902;28;20479;-63
2023/12/07 08:07:29;;;;;;;27.30;19.10;;;;;;;2.86;79.83;101917.03;5081906;28;20098;-64
2023/12/07 08:09:58;;;;;;;29.00;18.70;;;;;;;2.86;80.33;101901.44;5083457;28;20033;-64
2023/12/07 08:12:23;;;;;;;25.83;16.70;;;;;;;2.85;80.49;101899.72;5093328;28;20039;-63
2023/12/07 08:14:49;;;;;;;24.15;17.20;;;;;;;2.88;80.35;101901.28;5096073;28;20032;-64
2023/12/07 08:17:14;;;;;;;24.25;17.27;;;;;;;2.89;80.49;101900.25;5094006;28;20028;-63
2023/12/07 08:19:42;;;;;;;25.85;18.17;;;;;;;2.92;80.24;101905.38;5082256;28;20023;-64
2023/12/07 08:22:07;;;;;;;26.40;17.80;;;;;;;2.90;79.84;101910.16;5096722;28;20055;-64
2023/12/07 08:24:36;;;;;;;22.25;17.42;;;;;;;2.94;80.45;101914.25;5085654;28;20032;-63
2023/12/07 08:27:03;;;;;;;23.88;16.50;;;;;;;2.92;80.03;101911.72;5088883;28;20578;-63
2023/12/07 08:29:28;;;;;;;24.33;16.92;;;;;;;2.89;80.19;101909.31;5093225;28;20083;-62
2023/12/07 08:31:54;;;;;;;22.38;15.75;;;;;;;2.88;80.51;101912.25;5092200;28;20495;-63
2023/12/07 08:34:20;;;;;;;22.08;15.57;;;;;;;2.82;80.62;101910.19;5089128;28;20044;-63
2023/12/07 08:36:45;;;;;;;27.65;16.80;;;;;;;2.82;81.17;101908.31;5083667;28;22075;-65
2023/12/07 08:39:11;;;;;;;23.23;15.40;;;;;;;2.85;80.45;101916.19;5081733;28;20048;-64
2023/12/07 08:41:37;;;;;;;20.65;15.63;;;;;;;2.87;80.45;101913.25;5082823;28;20456;-64
2023/12/07 08:44:03;;;;;;;23.65;16.20;;;;;;;2.91;80.08;101914.66;5085979;28;20040;-64
2023/12/07 08:46:28;;;;;;;22.65;16.27;;;;;;;2.94;80.56;101908.78;5089013;28;20039;-64
2023/12/07 08:48:55;;;;;;;22.15;15.60;;;;;;;2.93;80.10;101907.06;5076629;28;20032;-65
2023/12/07 08:51:21;;;;;;;22.20;17.25;;;;;;;2.99;80.36;101910.97;5083618;28;20077;-65
2023/12/07 08:53:47;;;;;;;25.60;21.13;;;;;;;2.94;80.44;101908.78;5084127;28;20060;-65
2023/12/07 08:56:15;;;;;;;25.15;18.35;;;;;;;2.99;79.96;101920.09;5078687;28;20044;-62
2023/12/07 08:58:41;;;;;;;24.50;18.40;;;;;;;3.02;80.39;101924.34;5077103;28;20032;-64
2023/12/07 09:01:06;;;;;;;27.85;19.92;;;;;;;3.04;79.86;101914.06;5073410;28;20456;-64
2023/12/07 09:03:35;;;;;;;24.33;17.00;;;;;;;3.05;80.45;101921.25;5083993;28;20031;-63
2023/12/07 09:06:01;;;;;;;27.13;17.88;;;;;;;3.07;80.45;101908.25;5081285;28;20069;-64
2023/12/07 09:08:26;;;;;;;27.80;17.35;;;;;;;3.06;80.17;101903.75;5079536;28;20391;-63
2023/12/07 09:10:52;;;;;;;26.83;18.38;;;;;;;3.05;80.24;101905.66;5083098;28;20032;-63
2023/12/07 09:13:22;;;;;;;26.75;18.73;;;;;;;3.06;80.58;101910.09;5074551;28;20423;-63
2023/12/07 09:15:48;;;;;;;28.45;18.75;;;;;;;3.06;80.63;101898.28;5084752;28;20103;-64
2023/12/07 09:18:13;;;;;;;29.65;19.55;;;;;;;3.06;80.10;101895.53;5086278;28;20139;-63
2023/12/07 09:20:45;;;;;;;28.30;19.33;;;;;;;3.05;80.65;101902.91;5087985;28;20467;-63
2023/12/07 09:23:12;;;;;;;27.85;20.13;;;;;;;3.06;80.33;101907.34;5089620;28;20028;-64
2023/12/07 09:25:37;;;;;;;28.63;19.88;;;;;;;3.10;80.33;101897.75;5082607;28;20067;-64
2023/12/07 09:28:03;;;;;;;31.27;19.67;;;;;;;3.12;80.76;101901.16;5078770;28;20055;-64
2023/12/07 09:30:28;;;;;;;29.00;19.85;;;;;;;3.11;80.38;101893.97;5090461;28;20452;-64
2023/12/07 09:32:53;;;;;;;28.27;20.08;;;;;;;3.12;80.60;101895.69;5086005;28;20052;-62
2023/12/07 09:35:19;;;;;;;29.23;20.50;;;;;;;3.08;80.59;101888.84;5075959;28;20055;-66
2023/12/07 09:37:45;;;;;;;30.63;19.98;;;;;;;3.09;80.48;101884.22;5089334;28;20020;-63
2023/12/07 09:40:18;;;;;;;30.83;20.40;;;;;;;3.12;81.18;101879.22;5077681;28;20031;-63
2023/12/07 09:42:44;;;;;;;27.30;19.15;;;;;;;3.15;81.03;101884.38;5077492;28;20349;-64
2023/12/07 09:45:10;;;;;;;31.27;20.63;;;;;;;3.19;81.02;101880.22;5075208;28;20036;-60
2023/12/07 09:47:38;;;;;;;26.55;19.48;;;;;;;3.24;80.93;101884.31;5080580;28;20039;-63
2023/12/07 09:50:05;;;;;;;29.95;21.30;;;;;;;3.27;80.69;101875.72;5077764;28;20059;-62
2023/12/07 09:52:31;;;;;;;29.55;19.98;;;;;;;3.25;80.55;101872.31;5077031;28;20024;-63
2023/12/07 09:54:56;;;;;;;28.90;20.65;;;;;;;3.25;80.55;101864.06;5086680;28;20028;-62
2023/12/07 09:57:22;;;;;;;26.50;19.77;;;;;;;3.28;80.91;101856.34;5089023;28;20105;-62
2023/12/07 09:59:48;;;;;;;29.10;20.85;;;;;;;3.35;81.18;101851.84;5081572;28;20108;-63
2023/12/07 10:02:16;;;;;;;26.10;19.13;;;;;;;3.42;81.65;101851.97;5081585;28;20137;-60
2023/12/07 10:04:41;;;;;;;26.65;20.30;;;;;;;3.51;81.57;101839.91;5080709;28;20060;-62
2023/12/07 10:07:09;;;;;;;26.48;19.08;;;;;;;3.62;80.71;101835.88;5072355;28;20075;-62
2023/12/07 10:09:41;;;;;;;27.73;19.83;;;;;;;3.72;81.32;101827.38;5073955;28;20110;-62
2023/12/07 10:12:06;;;;;;;22.50;18.90;;;;;;;3.82;80.64;101815.09;5074744;28;20059;-68
2023/12/07 10:14:32;;;;;;;25.23;18.35;;;;;;;3.93;80.58;101820.16;5083834;28;20140;-62
2023/12/07 10:16:59;;;;;;;22.48;17.05;;;;;;;3.98;79.57;101816.84;5079726;28;20078;-63
2023/12/07 10:19:25;;;;;;;24.45;18.33;;;;;;;3.97;79.77;101811.53;5078792;28;20032;-64
2023/12/07 10:21:54;;;;;;;26.45;18.27;;;;;;;3.98;79.30;101811.34;5084131;28;20073;-63
2023/12/07 10:24:20;;;;;;;26.65;18.75;;;;;;;4.03;79.83;101813.53;5077147;28;20570;-64
2023/12/07 10:26:47;;;;;;;25.55;17.75;;;;;;;4.09;79.21;101804.56;5075857;28;20020;-64
2023/12/07 10:29:13;;;;;;;25.58;18.58;;;;;;;4.11;78.90;101797.81;5076774;28;20035;-67
2023/12/07 10:31:38;;;;;;;23.65;18.42;;;;;;;4.15;78.97;101790.91;5077632;28;20020;-64
2023/12/07 10:34:05;;;;;;;24.67;18.67;;;;;;;4.25;79.03;101787.06;5077639;28;20041;-62
2023/12/07 10:36:30;;;;;;;22.25;16.65;;;;;;;4.36;78.80;101792.06;5078582;28;20383;-63
2023/12/07 10:38:56;;;;;;;22.98;16.55;;;;;;;4.45;78.56;101785.44;5078712;28;20026;-64
2023/12/07 10:41:23;;;;;;;22.80;16.73;;;;;;;4.45;77.77;101790.94;5074151;28;20050;-64
2023/12/07 10:44:00;;;;;;;22.20;17.45;;;;;;;4.52;78.44;101778.13;5075761;28;20117;-64
2023/12/07 10:46:26;;;;;;;22.02;16.67;;;;;;;4.54;78.01;101776.03;5083836;28;20043;-63
2023/12/07 10:48:59;;;;;;;21.60;16.90;;;;;;;4.61;78.63;101765.97;5080152;28;20102;-64
2023/12/07 10:51:38;;;;;;;21.98;16.13;;;;;;;4.72;78.15;101766.56;5081392;28;20036;-65
2023/12/07 10:54:07;;;;;;;21.52;15.75;;;;;;;4.78;77.65;101768.50;5077979;28;20032;-65
2023/12/07 10:56:45;;;;;;;22.42;16.08;;;;;;;4.80;77.00;101755.44;5073608;28;20023;-64
2023/12/07 10:59:12;;;;;;;20.73;16.27;;;;;;;4.82;76.68;101767.94;5077757;28;20171;-63
2023/12/07 11:01:42;;;;;;;19.33;16.40;;;;;;;4.84;77.50;101756.75;5080603;28;20024;-64
2023/12/07 11:04:11;;;;;;;21.88;15.63;;;;;;;4.88;76.95;101756.16;5077252;28;20028;-63
2023/12/07 11:06:37;;;;;;;22.55;17.15;;;;;;;4.95;77.26;101749.88;5078616;28;20028;-64
2023/12/07 11:09:18;;;;;;;19.58;15.30;;;;;;;4.98;76.65;101749.50;5081865;28;20086;-62
2023/12/07 11:11:51;;;;;;;18.58;15.02;;;;;;;4.99;76.54;101752.06;5076126;28;20017;-64